This is the latest recevied weather packets stored in our database for station/object IK3SVW-3. If no packets are shown the sender has not sent any weather packets the latest 10 day(s).
| Time | Temp. | Humidity | Pressure | Rain* | Wind** | Luminosity | Snow |
|---|---|---|---|---|---|---|---|
| 1777864005 | 15.56° C | 54% | 1015 hPa | 0 mm | - | - | - |
| 1777847206 | 17.78° C | 48% | 1016 hPa | 0 mm | - | - | - |
| 1777846545 | 17.78° C | 48% | 1016 hPa | 0 mm | - | - | - |
| 1777842947 | 18.33° C | 45% | 1016 hPa | 0 mm | - | - | - |
| 1777840668 | 18.89° C | 43% | 1016 hPa | 0 mm | - | - | - |
| 1777839345 | 19.44° C | 42% | 1016 hPa | 0 mm | - | - | - |
| 1777836709 | 20° C | 39% | 1016 hPa | 0 mm | - | - | - |
| 1777832805 | 21.11° C | 35% | 1015 hPa | 0 mm | - | - | - |
| 1777832145 | 21.11° C | 34% | 1015 hPa | 0 mm | - | - | - |
| 1777828545 | 22.78° C | 30% | 1015 hPa | 0 mm | - | - | - |
| 1777825609 | 23.89° C | 29% | 1015 hPa | 0 mm | - | - | - |
| 1777824989 | 23.89° C | 30% | 1015 hPa | 0 mm | - | - | - |
| 1777822008 | 23.89° C | 31% | 1015 hPa | 0 mm | - | - | - |
| 1777817087 | 23.89° C | 31% | 1016 hPa | 0 mm | - | - | - |
| 1777815467 | 23.33° C | 32% | 1016 hPa | 0 mm | - | - | - |
| 1777814808 | 23.33° C | 33% | 1016 hPa | 0 mm | - | - | - |
| 1777809701 | 22.22° C | 34% | 1017 hPa | 0 mm | - | - | - |
| 1777808925 | 22.22° C | 34% | 1017 hPa | 0 mm | - | - | - |
| 1777806946 | 21.67° C | 33% | 1017 hPa | 0 mm | - | - | - |
| 1777803471 | 21.11° C | 34% | 1017 hPa | 0 mm | - | - | - |
| 1777802852 | 20.56° C | 35% | 1017 hPa | 0 mm | - | - | - |
| 1777802804 | 20.56° C | 35% | 1017 hPa | 0 mm | - | - | - |
| 1777802757 | 20.56° C | 36% | 1018 hPa | 0 mm | - | - | - |
| 1777800710 | 20° C | 36% | 1018 hPa | 0 mm | - | - | - |
| 1777800406 | 20° C | 36% | 1018 hPa | 0 mm | - | - | - |
* Rain latest hour (hover to see other rain measurements)
** Current wind speed in m/s (hover to see current wind gust speed)